createdAt,value
2018-05-07T00:00:37.126Z,9.50
2018-05-07T00:03:03.230Z,9.50
2018-05-07T00:05:29.322Z,9.50
2018-05-07T00:07:56.225Z,9.30
2018-05-07T00:10:23.024Z,9.30
2018-05-07T00:12:49.878Z,9.20
2018-05-07T00:15:16.716Z,9.10
2018-05-07T00:17:43.537Z,9.10
2018-05-07T00:20:40.978Z,9.00
2018-05-07T00:23:07.058Z,9.00
2018-05-07T00:25:33.163Z,8.90
2018-05-07T00:27:59.999Z,8.80
2018-05-07T00:30:26.834Z,8.80
2018-05-07T00:32:52.925Z,8.80
2018-05-07T00:35:19.021Z,8.70
2018-05-07T00:37:45.106Z,8.70
2018-05-07T00:40:11.215Z,8.70
2018-05-07T00:42:37.312Z,8.70
2018-05-07T00:45:03.422Z,8.60
2018-05-07T00:47:29.518Z,8.60
2018-05-07T00:49:55.614Z,8.60
2018-05-07T00:52:21.705Z,8.60
2018-05-07T00:55:06.329Z,8.60
2018-05-07T00:57:32.404Z,8.50
2018-05-07T00:59:58.497Z,8.50
2018-05-07T01:02:25.314Z,8.50
2018-05-07T01:04:51.385Z,8.50
2018-05-07T01:07:17.474Z,8.50
2018-05-07T01:09:43.551Z,8.40
2018-05-07T01:12:09.647Z,8.40
2018-05-07T01:14:35.720Z,8.40
2018-05-07T01:17:01.811Z,8.40
2018-05-07T01:19:27.894Z,8.40
2018-05-07T01:21:53.964Z,8.40
2018-05-07T01:24:20.044Z,8.40
2018-05-07T01:26:46.897Z,8.30
2018-05-07T01:29:12.965Z,8.30
2018-05-07T01:31:39.037Z,8.30
2018-05-07T01:34:05.118Z,8.30
2018-05-07T01:36:31.189Z,8.20
2018-05-07T01:38:57.284Z,8.20
2018-05-07T01:41:23.353Z,8.20
2018-05-07T01:43:50.173Z,8.10
2018-05-07T01:46:16.237Z,8.00
2018-05-07T01:48:42.321Z,8.00
2018-05-07T01:51:08.393Z,7.90
2018-05-07T01:53:34.479Z,7.90
2018-05-07T01:56:00.562Z,7.80
2018-05-07T01:58:26.662Z,7.80
2018-05-07T02:00:53.499Z,7.80
2018-05-07T02:03:20.313Z,7.70
2018-05-07T02:05:46.403Z,7.70
2018-05-07T02:08:12.470Z,7.70
2018-05-07T02:10:38.554Z,7.70
2018-05-07T02:13:04.633Z,7.70
2018-05-07T02:15:31.465Z,7.70
2018-05-07T02:17:57.551Z,7.70
2018-05-07T02:20:23.649Z,7.70
2018-05-07T02:22:49.718Z,7.80
2018-05-07T02:25:15.810Z,7.80
2018-05-07T02:27:41.899Z,7.80
2018-05-07T02:30:08.739Z,7.80
2018-05-07T02:32:34.811Z,7.70
2018-05-07T02:35:00.887Z,7.70
2018-05-07T02:39:59.823Z,7.60
2018-05-07T02:42:26.650Z,7.50
2018-05-07T02:44:53.478Z,7.40
2018-05-07T02:47:19.562Z,7.40
2018-05-07T02:49:45.637Z,7.30
2018-05-07T02:52:13.146Z,7.30
2018-05-07T02:54:39.210Z,7.30
2018-05-07T02:57:05.292Z,7.30
2018-05-07T02:59:31.398Z,7.30
2018-05-07T03:01:57.507Z,7.30
2018-05-07T03:04:24.339Z,7.20
2018-05-07T03:06:51.187Z,7.20
2018-05-07T03:09:17.294Z,7.20
2018-05-07T03:11:43.393Z,7.20
2018-05-07T03:14:09.477Z,7.20
2018-05-07T03:16:36.340Z,7.20
2018-05-07T03:19:02.438Z,7.20
2018-05-07T03:21:29.269Z,7.20
2018-05-07T03:23:55.370Z,7.20
2018-05-07T03:26:21.467Z,7.20
2018-05-07T03:28:47.557Z,7.20
2018-05-07T03:31:14.378Z,7.20
2018-05-07T03:33:40.493Z,7.20
2018-05-07T03:36:06.585Z,7.20
2018-05-07T03:38:32.679Z,7.20
2018-05-07T03:40:59.517Z,7.30
2018-05-07T03:43:26.345Z,7.30
2018-05-07T03:45:52.453Z,7.30
2018-05-07T03:48:18.561Z,7.30
2018-05-07T03:50:44.628Z,7.30
2018-05-07T03:53:10.708Z,7.30
2018-05-07T03:55:36.799Z,7.40
2018-05-07T03:58:03.653Z,7.40
2018-05-07T04:00:29.749Z,7.40
2018-05-07T04:02:55.838Z,7.50
2018-05-07T04:05:21.924Z,7.50
2018-05-07T04:07:48.015Z,7.50
2018-05-07T04:10:14.118Z,7.50
2018-05-07T04:12:40.235Z,7.60
2018-05-07T04:15:07.883Z,7.60
2018-05-07T04:17:52.530Z,7.60
2018-05-07T04:23:48.478Z,7.60
2018-05-07T04:26:14.581Z,7.50
2018-05-07T04:28:41.417Z,7.50
2018-05-07T04:31:07.510Z,7.50
2018-05-07T04:33:33.596Z,7.50
2018-05-07T04:35:59.693Z,7.60
2018-05-07T04:38:25.828Z,7.70
2018-05-07T04:40:52.666Z,7.70
2018-05-07T04:43:19.560Z,7.80
2018-05-07T04:45:46.353Z,7.80
2018-05-07T04:48:13.202Z,7.90
2018-05-07T04:56:43.581Z,8.00
2018-05-07T04:59:09.665Z,8.00
2018-05-07T05:01:35.766Z,8.00
2018-05-07T05:04:01.847Z,8.10
2018-05-07T05:06:28.682Z,8.40
2018-05-07T05:08:55.503Z,9.20
2018-05-07T05:11:21.590Z,9.20
2018-05-07T05:13:47.656Z,11.80
2018-05-07T05:16:13.725Z,14.60
2018-05-07T05:18:39.801Z,16.90
2018-05-07T05:21:05.969Z,18.60
2018-05-07T05:23:32.003Z,20.00
2018-05-07T05:25:58.095Z,21.30
2018-05-07T05:28:24.916Z,23.30
2018-05-07T05:30:50.989Z,23.30
2018-05-07T05:33:17.073Z,23.80
2018-05-07T05:35:43.159Z,24.20
2018-05-07T05:38:09.240Z,24.70
2018-05-07T05:40:35.314Z,25.40
2018-05-07T05:43:01.446Z,26.00
2018-05-07T05:45:27.522Z,26.60
2018-05-07T05:47:54.341Z,27.50
2018-05-07T05:50:20.502Z,27.40
2018-05-07T05:52:46.522Z,27.80
2018-05-07T05:55:13.341Z,28.50
2018-05-07T05:57:39.408Z,28.40
2018-05-07T06:00:05.485Z,28.70
2018-05-07T06:02:31.558Z,29.20
2018-05-07T06:04:57.640Z,29.50
2018-05-07T06:07:23.734Z,29.80
2018-05-07T06:09:49.809Z,30.00
2018-05-07T06:12:16.620Z,30.40
2018-05-07T06:14:42.832Z,30.40
2018-05-07T06:17:08.789Z,30.50
2018-05-07T06:19:34.878Z,30.80
2018-05-07T06:22:00.958Z,31.00
2018-05-07T06:24:27.782Z,31.10
2018-05-07T06:26:53.863Z,31.10
2018-05-07T06:29:19.945Z,31.10
2018-05-07T06:31:46.787Z,31.00
2018-05-07T06:34:13.652Z,31.10
2018-05-07T06:36:40.459Z,31.20
2018-05-07T06:39:06.549Z,31.20
2018-05-07T06:41:32.637Z,31.30
2018-05-07T06:43:58.725Z,31.30
2018-05-07T06:46:24.820Z,31.30
2018-05-07T06:48:50.923Z,31.40
2018-05-07T06:51:17.028Z,31.50
2018-05-07T06:53:43.845Z,31.60
2018-05-07T06:56:09.944Z,31.50
2018-05-07T06:58:36.030Z,31.60
2018-05-07T07:01:02.888Z,31.80
2018-05-07T07:03:28.957Z,31.70
2018-05-07T07:05:55.041Z,31.70
2018-05-07T07:08:21.261Z,31.60
2018-05-07T07:10:47.224Z,31.50
2018-05-07T07:13:13.298Z,31.40
2018-05-07T07:15:40.113Z,31.10
2018-05-07T07:18:06.197Z,31.00
2018-05-07T07:20:32.283Z,30.80
2018-05-07T07:22:59.121Z,30.70
2018-05-07T07:25:25.928Z,30.60
2018-05-07T07:27:52.085Z,30.60
2018-05-07T07:30:18.099Z,30.40
2018-05-07T07:32:44.186Z,30.10
2018-05-07T07:35:10.261Z,29.90
2018-05-07T07:37:36.346Z,29.70
2018-05-07T07:40:02.409Z,29.50
2018-05-07T07:42:28.486Z,29.40
2018-05-07T07:44:55.073Z,29.30
2018-05-07T07:47:21.201Z,29.20
2018-05-07T07:49:47.234Z,29.20
2018-05-07T07:52:14.054Z,29.10
2018-05-07T07:54:40.138Z,29.10
2018-05-07T07:57:06.218Z,29.00
2018-05-07T07:59:32.327Z,29.00
2018-05-07T08:01:58.422Z,29.00
2018-05-07T08:04:24.514Z,28.90
2018-05-07T08:06:50.611Z,28.80
2018-05-07T08:09:16.697Z,28.90
2018-05-07T08:11:42.785Z,28.90
2018-05-07T08:14:10.062Z,29.10
2018-05-07T08:16:36.164Z,29.10
2018-05-07T08:19:02.990Z,29.20
2018-05-07T08:21:29.090Z,29.20
2018-05-07T08:23:55.179Z,29.40
2018-05-07T08:26:21.272Z,29.40
2018-05-07T08:28:47.368Z,29.40
2018-05-07T08:31:13.457Z,29.50
2018-05-07T08:33:39.563Z,29.70
2018-05-07T08:36:06.402Z,29.50
2018-05-07T08:38:34.869Z,29.50
2018-05-07T08:41:01.721Z,29.10
2018-05-07T08:43:28.545Z,28.80
2018-05-07T08:45:56.114Z,28.70
2018-05-07T08:48:24.683Z,28.70
2018-05-07T08:50:50.775Z,28.70
2018-05-07T08:53:16.948Z,28.90
2018-05-07T08:55:42.986Z,28.90
2018-05-07T08:58:09.833Z,29.20
2018-05-07T09:00:36.705Z,29.10
2018-05-07T09:03:02.777Z,29.10
2018-05-07T09:05:28.870Z,29.30
2018-05-07T09:07:54.978Z,29.60
2018-05-07T09:10:21.065Z,29.80
2018-05-07T09:12:47.168Z,29.80
2018-05-07T09:15:13.253Z,30.00
2018-05-07T09:17:39.379Z,30.10
2018-05-07T09:20:05.479Z,30.10
2018-05-07T09:22:32.306Z,30.00
2018-05-07T09:24:58.401Z,30.00
2018-05-07T09:27:24.490Z,30.20
2018-05-07T09:29:50.572Z,30.40
2018-05-07T09:32:16.717Z,30.30
2018-05-07T09:34:42.762Z,30.00
2018-05-07T09:37:09.590Z,29.50
2018-05-07T09:39:36.444Z,29.70
2018-05-07T09:42:03.272Z,29.80
2018-05-07T09:44:30.122Z,29.80
2018-05-07T09:46:56.970Z,29.60
2018-05-07T09:49:23.813Z,29.70
2018-05-07T09:51:50.645Z,29.70
2018-05-07T09:54:17.485Z,29.70
2018-05-07T09:56:53.971Z,29.60
2018-05-07T09:59:20.023Z,29.50
2018-05-07T10:01:46.126Z,29.70
2018-05-07T10:04:12.217Z,29.50
2018-05-07T10:06:38.324Z,29.30
2018-05-07T10:09:04.409Z,29.40
2018-05-07T10:11:30.521Z,29.60
2018-05-07T10:13:57.355Z,29.70
2018-05-07T10:16:24.198Z,30.00
2018-05-07T10:18:51.050Z,30.30
2018-05-07T10:21:17.894Z,30.20
2018-05-07T10:23:44.721Z,30.30
2018-05-07T10:26:10.810Z,30.30
2018-05-07T10:28:36.897Z,30.00
2018-05-07T10:31:05.163Z,29.90
2018-05-07T10:33:32.002Z,29.50
2018-05-07T10:35:58.830Z,29.50
2018-05-07T10:38:24.927Z,29.40
2018-05-07T10:40:51.026Z,29.60
2018-05-07T10:43:17.116Z,29.80
2018-05-07T10:45:43.957Z,30.10
2018-05-07T10:48:10.795Z,30.10
2018-05-07T10:50:38.223Z,29.90
2018-05-07T10:53:04.317Z,29.90
2018-05-07T10:55:30.412Z,29.90
2018-05-07T10:57:57.254Z,29.60
2018-05-07T11:00:24.091Z,29.70
2018-05-07T11:02:50.189Z,29.60
2018-05-07T11:05:16.291Z,29.60
2018-05-07T11:07:42.398Z,29.60
2018-05-07T11:10:08.498Z,29.40
2018-05-07T11:12:35.341Z,29.40
2018-05-07T11:15:02.166Z,29.30
2018-05-07T11:17:28.271Z,29.30
2018-05-07T11:19:54.375Z,29.30
2018-05-07T11:22:20.479Z,29.30
2018-05-07T11:24:46.564Z,29.40
2018-05-07T11:27:12.643Z,29.60
2018-05-07T11:29:38.761Z,29.50
2018-05-07T11:32:04.864Z,29.20
2018-05-07T11:34:31.705Z,29.30
2018-05-07T11:36:58.530Z,29.50
2018-05-07T11:39:26.138Z,29.40
2018-05-07T11:41:53.438Z,29.50
2018-05-07T11:44:19.529Z,29.50
2018-05-07T11:46:45.634Z,29.50
2018-05-07T11:49:11.720Z,29.90
2018-05-07T11:51:37.801Z,30.20
2018-05-07T11:54:03.883Z,30.30
2018-05-07T11:56:30.715Z,30.50
2018-05-07T11:58:56.795Z,30.50
2018-05-07T12:01:22.885Z,30.60
2018-05-07T12:03:49.703Z,30.80
2018-05-07T12:06:15.794Z,30.80
2018-05-07T12:08:41.870Z,30.70
2018-05-07T12:11:07.950Z,30.60
2018-05-07T12:13:34.018Z,30.70
2018-05-07T12:16:00.151Z,30.90
2018-05-07T12:18:26.203Z,31.00
2018-05-07T12:20:52.293Z,30.90
2018-05-07T12:23:18.476Z,30.90
2018-05-07T12:25:44.473Z,31.10
2018-05-07T12:28:10.548Z,31.30
2018-05-07T12:30:36.623Z,31.50
2018-05-07T12:33:02.702Z,31.40
2018-05-07T12:35:28.769Z,31.30
2018-05-07T12:37:55.589Z,31.30
2018-05-07T12:40:21.657Z,31.30
2018-05-07T12:42:47.745Z,31.50
2018-05-07T12:45:13.817Z,31.20
2018-05-07T12:47:39.898Z,31.30
2018-05-07T12:50:06.713Z,31.10
2018-05-07T12:52:32.818Z,31.10
2018-05-07T12:54:58.885Z,30.90
2018-05-07T12:57:24.954Z,30.80
2018-05-07T12:59:51.029Z,30.80
2018-05-07T13:02:17.103Z,31.10
2018-05-07T13:04:43.185Z,31.40
2018-05-07T13:07:09.263Z,31.50
2018-05-07T13:09:35.344Z,31.50
2018-05-07T13:12:02.171Z,31.90
2018-05-07T13:14:28.254Z,31.80
2018-05-07T13:16:54.346Z,32.00
2018-05-07T13:19:45.268Z,31.70
2018-05-07T13:22:11.353Z,31.60
2018-05-07T13:24:37.442Z,31.70
2018-05-07T13:27:03.524Z,31.70
2018-05-07T13:29:33.436Z,31.90
2018-05-07T13:35:01.419Z,31.90
2018-05-07T13:40:33.327Z,31.90
2018-05-07T13:42:59.405Z,31.90
2018-05-07T13:45:25.489Z,31.70
2018-05-07T13:47:51.563Z,31.60
2018-05-07T13:50:17.679Z,31.60
2018-05-07T13:52:43.766Z,31.60
2018-05-07T13:55:09.837Z,31.70
2018-05-07T13:57:40.709Z,31.80
2018-05-07T14:00:07.526Z,32.00
2018-05-07T14:02:38.821Z,31.90
2018-05-07T14:05:06.329Z,32.20
2018-05-07T14:07:32.397Z,32.10
2018-05-07T14:09:58.485Z,32.20
2018-05-07T14:12:24.570Z,32.20
2018-05-07T14:14:50.641Z,32.20
2018-05-07T14:17:16.742Z,32.10
2018-05-07T14:19:42.809Z,32.10
2018-05-07T14:22:09.636Z,31.80
2018-05-07T14:24:35.702Z,31.80
2018-05-07T14:27:01.781Z,31.80
2018-05-07T14:29:27.850Z,31.90
2018-05-07T14:31:53.939Z,32.00
2018-05-07T14:34:20.762Z,32.20
2018-05-07T14:36:46.846Z,32.10
2018-05-07T14:39:12.925Z,32.30
2018-05-07T14:41:39.004Z,32.20
2018-05-07T14:44:05.106Z,32.00
2018-05-07T14:46:31.185Z,32.10
2018-05-07T14:48:57.260Z,32.40
2018-05-07T14:51:23.367Z,32.30
2018-05-07T14:53:50.205Z,32.40
2018-05-07T14:56:17.033Z,32.50
2018-05-07T14:58:43.199Z,32.50
2018-05-07T15:01:09.221Z,32.40
2018-05-07T15:03:35.325Z,32.30
2018-05-07T15:06:02.149Z,32.00
2018-05-07T15:08:28.245Z,32.00
2018-05-07T15:10:54.363Z,31.90
2018-05-07T15:13:20.529Z,31.80
2018-05-07T15:15:46.557Z,31.70
2018-05-07T15:18:13.381Z,31.60
2018-05-07T15:20:39.491Z,31.60
2018-05-07T15:23:05.589Z,31.50
2018-05-07T15:25:31.686Z,31.50
2018-05-07T15:27:57.769Z,31.20
2018-05-07T15:30:23.884Z,31.20
2018-05-07T15:32:49.974Z,31.30
2018-05-07T15:35:16.817Z,31.60
2018-05-07T15:37:43.654Z,31.40
2018-05-07T15:40:10.501Z,31.20
2018-05-07T15:42:37.351Z,31.10
2018-05-07T15:45:04.188Z,30.90
2018-05-07T15:47:31.035Z,30.80
2018-05-07T15:49:57.848Z,30.80
2018-05-07T15:52:23.929Z,30.80
2018-05-07T15:54:50.001Z,30.80
2018-05-07T15:57:16.087Z,30.50
2018-05-07T15:59:42.167Z,30.40
2018-05-07T16:02:08.272Z,30.10
2018-05-07T16:04:34.344Z,30.00
2018-05-07T16:07:00.425Z,29.90
2018-05-07T16:09:26.516Z,29.70
2018-05-07T16:11:52.591Z,29.50
2018-05-07T16:14:18.665Z,29.30
2018-05-07T16:16:44.750Z,29.10
2018-05-07T16:19:11.670Z,28.80
2018-05-07T16:21:38.419Z,28.70
2018-05-07T16:24:04.537Z,28.70
2018-05-07T16:26:30.643Z,28.60
2018-05-07T16:28:56.725Z,28.40
2018-05-07T16:31:23.663Z,28.00
2018-05-07T16:33:50.540Z,27.80
2018-05-07T16:36:16.618Z,27.80
2018-05-07T16:38:42.712Z,27.60
2018-05-07T16:41:11.018Z,27.40
2018-05-07T16:43:37.129Z,27.20
2018-05-07T16:46:03.209Z,27.00
2018-05-07T16:48:29.328Z,26.80
2018-05-07T16:50:55.475Z,26.70
2018-05-07T16:53:22.261Z,26.30
2018-05-07T16:55:48.355Z,26.30
2018-05-07T16:58:14.441Z,26.10
2018-05-07T17:00:41.285Z,25.80
2018-05-07T17:03:08.117Z,25.60
2018-05-07T17:05:34.957Z,25.50
2018-05-07T17:08:01.809Z,25.30
2018-05-07T17:10:28.641Z,25.20
2018-05-07T17:12:55.479Z,25.00
2018-05-07T17:15:22.317Z,24.80
2018-05-07T17:17:48.402Z,24.80
2018-05-07T17:20:14.501Z,24.70
2018-05-07T17:22:40.585Z,24.50
2018-05-07T17:25:06.673Z,24.40
2018-05-07T17:27:32.764Z,24.20
2018-05-07T17:29:59.609Z,23.90
2018-05-07T17:32:26.443Z,23.80
2018-05-07T17:34:53.268Z,23.60
2018-05-07T17:37:19.361Z,23.60
2018-05-07T17:39:45.445Z,23.40
2018-05-07T17:42:12.290Z,23.10
2018-05-07T17:44:57.842Z,22.90
2018-05-07T17:47:42.823Z,22.90
2018-05-07T17:50:08.911Z,22.70
2018-05-07T17:52:41.584Z,22.50
2018-05-07T17:55:07.664Z,22.30
2018-05-07T17:57:34.494Z,22.00
2018-05-07T18:00:00.605Z,22.00
2018-05-07T18:02:26.683Z,21.90
2018-05-07T18:04:52.763Z,21.70
2018-05-07T18:07:18.845Z,21.50
2018-05-07T18:09:44.929Z,21.50
2018-05-07T18:12:11.802Z,21.10
2018-05-07T18:14:37.903Z,21.00
2018-05-07T18:17:04.726Z,20.70
2018-05-07T18:19:30.805Z,20.60
2018-05-07T18:21:56.877Z,20.40
2018-05-07T18:24:22.965Z,20.20
2018-05-07T18:26:49.669Z,19.90
2018-05-07T18:29:16.501Z,19.30
2018-05-07T18:31:43.313Z,19.10
2018-05-07T18:34:09.397Z,19.00
2018-05-07T18:36:35.482Z,18.80
2018-05-07T18:39:01.561Z,18.60
2018-05-07T18:41:27.642Z,18.40
2018-05-07T18:43:54.465Z,18.00
2018-05-07T18:46:20.537Z,18.00
2018-05-07T18:48:47.237Z,17.80
2018-05-07T18:51:13.329Z,17.60
2018-05-07T18:53:39.413Z,17.50
2018-05-07T18:56:06.246Z,17.20
2018-05-07T18:58:33.076Z,17.00
2018-05-07T19:01:10.091Z,17.00
2018-05-07T19:03:36.210Z,16.90
2018-05-07T19:06:03.041Z,16.70
2018-05-07T19:08:29.862Z,16.60
2018-05-07T19:10:55.957Z,16.60
2018-05-07T19:13:22.044Z,16.50
2018-05-07T19:15:48.887Z,16.40
2018-05-07T19:18:15.722Z,16.20
2018-05-07T19:20:42.567Z,16.20
2018-05-07T19:23:09.415Z,16.10
2018-05-07T19:25:36.330Z,16.00
2018-05-07T19:28:02.360Z,16.00
2018-05-07T19:30:34.070Z,15.80
2018-05-07T19:33:28.514Z,15.80
2018-05-07T19:35:54.612Z,15.80
2018-05-07T19:38:20.723Z,15.70
2018-05-07T19:40:54.322Z,15.70
2018-05-07T19:43:26.901Z,15.60
2018-05-07T19:45:52.989Z,15.50
2018-05-07T19:48:19.831Z,15.40
2018-05-07T19:50:46.675Z,15.30
2018-05-07T19:53:13.508Z,15.30
2018-05-07T19:55:40.343Z,15.40
2018-05-07T19:58:07.189Z,15.50
2018-05-07T20:00:33.273Z,15.50
2018-05-07T20:02:59.375Z,15.60
2018-05-07T20:05:25.467Z,15.60
2018-05-07T20:07:52.320Z,15.50
2018-05-07T20:10:19.153Z,15.40
2018-05-07T20:12:45.990Z,15.30
2018-05-07T20:15:12.087Z,15.30
2018-05-07T20:17:38.185Z,15.30
2018-05-07T20:20:04.291Z,15.30
2018-05-07T20:22:31.118Z,15.20
2018-05-07T20:24:57.953Z,15.20
2018-05-07T20:27:24.054Z,15.20
2018-05-07T20:29:50.833Z,15.10
2018-05-07T20:32:17.661Z,15.00
2018-05-07T20:34:43.763Z,15.00
2018-05-07T20:37:09.845Z,15.00
2018-05-07T20:39:35.942Z,15.10
2018-05-07T20:42:02.433Z,15.10
2018-05-07T20:44:28.562Z,15.00
2018-05-07T20:46:54.667Z,15.00
2018-05-07T20:49:20.751Z,15.10
2018-05-07T20:51:46.841Z,15.10
2018-05-07T21:00:16.939Z,14.80
2018-05-07T21:02:43.789Z,14.80
2018-05-07T21:05:13.931Z,14.80
2018-05-07T21:07:40.009Z,14.80
2018-05-07T21:10:20.691Z,14.70
2018-05-07T21:12:50.196Z,14.60
2018-05-07T21:15:35.638Z,14.50
2018-05-07T21:18:01.712Z,14.50
2018-05-07T21:20:28.521Z,14.60
2018-05-07T21:23:15.707Z,14.60
2018-05-07T21:25:41.769Z,14.60
2018-05-07T21:28:07.860Z,14.50
2018-05-07T21:30:38.239Z,14.40
2018-05-07T21:33:04.323Z,14.30
2018-05-07T21:35:30.401Z,14.20
2018-05-07T21:37:57.232Z,14.10
2018-05-07T21:40:23.301Z,14.00
2018-05-07T21:42:59.586Z,13.90
2018-05-07T21:45:25.644Z,13.80
2018-05-07T21:47:51.719Z,13.70
2018-05-07T21:50:18.548Z,13.70
2018-05-07T21:52:44.578Z,13.60
2018-05-07T21:55:10.720Z,13.60
2018-05-07T21:57:36.790Z,13.60
2018-05-07T22:00:03.614Z,13.60
2018-05-07T22:02:29.694Z,13.60
2018-05-07T22:04:55.786Z,13.50
2018-05-07T22:07:21.874Z,13.60
2018-05-07T22:09:47.953Z,13.60
2018-05-07T22:12:14.044Z,13.60
2018-05-07T22:14:40.131Z,13.50
2018-05-07T22:17:06.211Z,13.50
2018-05-07T22:19:32.299Z,13.50
2018-05-07T22:21:58.378Z,13.40
2018-05-07T22:24:25.206Z,13.20
2018-05-07T22:26:51.286Z,13.20
2018-05-07T22:29:17.457Z,13.10
2018-05-07T22:31:43.541Z,13.00
2018-05-07T22:34:09.622Z,13.00
2018-05-07T22:36:36.438Z,13.10
2018-05-07T22:39:02.560Z,13.00
2018-05-07T22:41:28.611Z,13.10
2018-05-07T22:43:55.430Z,13.20
2018-05-07T22:46:22.340Z,13.30
2018-05-07T22:48:48.384Z,13.30
2018-05-07T22:51:14.473Z,13.30
2018-05-07T22:53:40.557Z,13.20
2018-05-07T22:56:06.649Z,13.10
2018-05-07T22:58:32.722Z,13.00
2018-05-07T23:00:59.550Z,12.70
2018-05-07T23:03:25.642Z,12.70
2018-05-07T23:05:51.718Z,12.60
2018-05-07T23:08:18.534Z,12.40
2018-05-07T23:10:51.909Z,12.30
2018-05-07T23:13:17.997Z,12.30
2018-05-07T23:15:44.060Z,12.20
2018-05-07T23:18:10.145Z,12.10
2018-05-07T23:20:46.550Z,12.10
2018-05-07T23:23:26.022Z,12.00
2018-05-07T23:26:05.657Z,11.90
2018-05-07T23:28:35.199Z,11.90
2018-05-07T23:31:12.629Z,11.80
2018-05-07T23:34:02.997Z,11.70
2018-05-07T23:36:29.083Z,11.70
2018-05-07T23:39:19.623Z,11.60
2018-05-07T23:41:56.636Z,11.50
2018-05-07T23:44:42.042Z,11.50
2018-05-07T23:47:10.139Z,11.40
2018-05-07T23:49:57.465Z,11.40
2018-05-07T23:52:24.282Z,11.30
2018-05-07T23:54:50.363Z,11.30
2018-05-07T23:57:16.447Z,11.30
2018-05-07T23:59:43.258Z,11.20
